Arcola, Virginia
Current Conditions -  °F | °C
As of 6:52 PM on Friday 21 Nov 2014 (Local Time) from KIAD Reporting Station
Clear Clear  
Wind Chill: 25°   Ceiling: Unl
Heat Index: 25°   Visibility: 10mi
Dew Point: 10°   Wind: 0mph
Humidity: 53%   Direction: NA
Pressure: 30.53"   Gusts: NA
Location:  38.95°N, 77.53°W
Report Text: KIAD 212352Z 00000KT 10SM CLR M04/M12 A3053 RMK AO2 SLP343 T10391122 10017 21039 51018
Loading
Personal Weather Stations






























Interactive Weather Map New forecast layout! Learn more

10-Day Weather Forecast

Advertisements
Track Severe Weather on mobile